createdAt,value
2023-05-14T00:00:55.391Z,95744.00
2023-05-14T00:01:54.411Z,95744.00
2023-05-14T00:02:54.572Z,95748.00
2023-05-14T00:03:54.515Z,95748.00
2023-05-14T00:04:55.458Z,95744.00
2023-05-14T00:05:55.480Z,95744.00
2023-05-14T00:06:55.516Z,95740.00
2023-05-14T00:07:55.574Z,95740.00
2023-05-14T00:08:55.587Z,95742.00
2023-05-14T00:09:54.654Z,95740.00
2023-05-14T00:10:54.666Z,95740.00
2023-05-14T00:11:55.681Z,95740.00
2023-05-14T00:12:55.703Z,95740.00
2023-05-14T00:13:55.731Z,95740.00
2023-05-14T00:14:55.776Z,95739.00
2023-05-14T00:15:54.867Z,95735.00
2023-05-14T00:16:54.823Z,95737.00
2023-05-14T00:17:55.929Z,95735.00
2023-05-14T00:18:55.908Z,95733.00
2023-05-14T00:19:55.908Z,95733.00
2023-05-14T00:20:55.022Z,95731.00
2023-05-14T00:21:55.976Z,95731.00
2023-05-14T00:22:55.018Z,95729.00
2023-05-14T00:23:55.069Z,95729.00
2023-05-14T00:24:56.099Z,95729.00
2023-05-14T00:25:56.149Z,95731.00
2023-05-14T00:26:56.180Z,95729.00
2023-05-14T00:27:55.196Z,95729.00
2023-05-14T00:28:55.260Z,95729.00
2023-05-14T00:29:55.287Z,95729.00
2023-05-14T00:30:55.337Z,95727.00
2023-05-14T00:31:56.346Z,95729.00
2023-05-14T00:32:55.423Z,95731.00
2023-05-14T00:33:55.401Z,95731.00
2023-05-14T00:34:56.427Z,95729.00
2023-05-14T00:35:55.462Z,95729.00
2023-05-14T00:36:56.485Z,95731.00
2023-05-14T00:37:55.554Z,95731.00
2023-05-14T00:38:56.571Z,95727.00
2023-05-14T00:39:55.583Z,95733.00
2023-05-14T00:40:55.628Z,95731.00
2023-05-14T00:41:55.685Z,95735.00
2023-05-14T00:42:55.668Z,95735.00
2023-05-14T00:43:56.733Z,95733.00
2023-05-14T00:44:56.764Z,95733.00
2023-05-14T00:45:55.801Z,95733.00
2023-05-14T00:46:56.895Z,95731.00
2023-05-14T00:47:56.923Z,95727.00
2023-05-14T00:48:55.897Z,95731.00
2023-05-14T00:49:55.956Z,95729.00
2023-05-14T00:50:55.929Z,95727.00
2023-05-14T00:51:56.923Z,95727.00
2023-05-14T00:52:55.951Z,95727.00
2023-05-14T00:53:56.953Z,95725.00
2023-05-14T00:54:57.018Z,95727.00
2023-05-14T00:55:56.017Z,95725.00
2023-05-14T00:56:57.037Z,95725.00
2023-05-14T00:57:56.091Z,95725.00
2023-05-14T00:58:56.074Z,95723.00
2023-05-14T00:59:56.103Z,95723.00
2023-05-14T01:00:56.155Z,95721.00
2023-05-14T01:01:56.099Z,95727.00
2023-05-14T01:02:57.195Z,95723.00
2023-05-14T01:03:57.316Z,95729.00
2023-05-14T01:04:56.152Z,95725.00
2023-05-14T01:05:56.155Z,95727.00
2023-05-14T01:06:57.157Z,95721.00
2023-05-14T01:07:56.176Z,95723.00
2023-05-14T01:08:56.179Z,95723.00
2023-05-14T01:09:56.184Z,95717.00
2023-05-14T01:10:57.166Z,95719.00
2023-05-14T01:11:56.163Z,95719.00
2023-05-14T01:12:56.173Z,95719.00
2023-05-14T01:13:57.185Z,95717.00
2023-05-14T01:14:57.169Z,95717.00
2023-05-14T01:15:57.184Z,95717.00
2023-05-14T01:16:57.223Z,95717.00
2023-05-14T01:17:57.233Z,95717.00
2023-05-14T01:18:56.245Z,95717.00
2023-05-14T01:19:57.200Z,95717.00
2023-05-14T01:20:57.212Z,95717.00
2023-05-14T01:21:57.237Z,95717.00
2023-05-14T01:22:57.260Z,95717.00
2023-05-14T01:23:57.295Z,95715.00
2023-05-14T01:24:56.299Z,95715.00
2023-05-14T01:25:56.329Z,95709.00
2023-05-14T01:26:56.389Z,95713.00
2023-05-14T01:27:57.351Z,95711.00
2023-05-14T01:28:57.378Z,95711.00
2023-05-14T01:29:56.419Z,95705.00
2023-05-14T01:30:56.418Z,95707.00
2023-05-14T01:31:57.471Z,95703.00
2023-05-14T01:32:57.439Z,95707.00
2023-05-14T01:33:56.398Z,95705.00
2023-05-14T01:34:56.411Z,95705.00
2023-05-14T01:35:57.421Z,95705.00
2023-05-14T01:36:57.426Z,95703.00
2023-05-14T01:37:56.441Z,95703.00
2023-05-14T01:38:57.457Z,95703.00
2023-05-14T01:39:57.463Z,95705.00
2023-05-14T01:40:57.484Z,95703.00
2023-05-14T01:41:57.484Z,95703.00
2023-05-14T01:42:57.512Z,95703.00
2023-05-14T01:43:57.474Z,95703.00
2023-05-14T01:44:57.499Z,95705.00
2023-05-14T01:45:57.567Z,95701.00
2023-05-14T01:46:57.499Z,95707.00
2023-05-14T01:47:56.592Z,95705.00
2023-05-14T01:48:57.494Z,95707.00
2023-05-14T01:49:57.505Z,95709.00
2023-05-14T01:50:56.493Z,95709.00
2023-05-14T01:51:57.496Z,95709.00
2023-05-14T01:52:57.505Z,95709.00
2023-05-14T01:53:57.502Z,95707.00
2023-05-14T01:54:57.499Z,95707.00
2023-05-14T01:55:57.512Z,95707.00
2023-05-14T01:56:57.518Z,95705.00
2023-05-14T01:57:56.564Z,95703.00
2023-05-14T01:58:56.552Z,95705.00
2023-05-14T01:59:57.560Z,95703.00
2023-05-14T02:00:57.593Z,95705.00
2023-05-14T02:01:57.635Z,95705.00
2023-05-14T02:02:57.646Z,95703.00
2023-05-14T02:03:57.582Z,95701.00
2023-05-14T02:04:56.554Z,95703.00
2023-05-14T02:05:56.564Z,95705.00
2023-05-14T02:06:56.559Z,95703.00
2023-05-14T02:07:57.551Z,95699.00
2023-05-14T02:08:57.556Z,95699.00
2023-05-14T02:09:56.570Z,95697.00
2023-05-14T02:10:57.550Z,95697.00
2023-05-14T02:11:57.552Z,95695.00
2023-05-14T02:12:57.549Z,95695.00
2023-05-14T02:13:56.561Z,95693.00
2023-05-14T02:14:57.537Z,95693.00
2023-05-14T02:15:56.568Z,95692.00
2023-05-14T02:16:56.537Z,95690.00
2023-05-14T02:17:56.625Z,95692.00
2023-05-14T02:18:56.594Z,95692.00
2023-05-14T02:19:56.527Z,95692.00
2023-05-14T02:20:57.540Z,95693.00
2023-05-14T02:21:56.518Z,95692.00
2023-05-14T02:22:56.507Z,95693.00
2023-05-14T02:23:57.521Z,95692.00
2023-05-14T02:24:56.523Z,95692.00
2023-05-14T02:25:56.517Z,95692.00
2023-05-14T02:26:57.509Z,95692.00
2023-05-14T02:27:56.500Z,95692.00
2023-05-14T02:28:56.487Z,95695.00
2023-05-14T02:29:57.496Z,95693.00
2023-05-14T02:30:57.575Z,95695.00
2023-05-14T02:31:57.542Z,95695.00
2023-05-14T02:32:56.570Z,95697.00
2023-05-14T02:33:56.487Z,95695.00
2023-05-14T02:34:57.479Z,95697.00
2023-05-14T02:35:57.498Z,95697.00
2023-05-14T02:36:56.459Z,95697.00
2023-05-14T02:37:57.480Z,95692.00
2023-05-14T02:38:57.502Z,95693.00
2023-05-14T02:39:57.458Z,95693.00
2023-05-14T02:40:56.470Z,95692.00
2023-05-14T02:41:57.450Z,95692.00
2023-05-14T02:42:56.466Z,95690.00
2023-05-14T02:43:57.465Z,95688.00
2023-05-14T02:44:56.450Z,95688.00
2023-05-14T02:45:56.460Z,95678.00
2023-05-14T02:46:57.476Z,95678.00
2023-05-14T02:47:56.543Z,95676.00
2023-05-14T02:48:56.459Z,95672.00
2023-05-14T02:49:56.470Z,95670.00
2023-05-14T02:50:57.446Z,95668.00
2023-05-14T02:51:56.448Z,95666.00
2023-05-14T02:52:57.419Z,95664.00
2023-05-14T02:53:56.423Z,95662.00
2023-05-14T02:54:56.417Z,95664.00
2023-05-14T02:55:56.418Z,95662.00
2023-05-14T02:56:57.438Z,95662.00
2023-05-14T02:57:57.441Z,95664.00
2023-05-14T02:58:57.427Z,95660.00
2023-05-14T02:59:57.424Z,95662.00
2023-05-14T03:00:56.519Z,95662.00
2023-05-14T03:01:57.434Z,95662.00
2023-05-14T03:02:56.468Z,95660.00
2023-05-14T03:03:57.398Z,95660.00
2023-05-14T03:04:57.390Z,95660.00
2023-05-14T03:05:56.415Z,95660.00
2023-05-14T03:06:56.386Z,95660.00
2023-05-14T03:07:56.384Z,95658.00
2023-05-14T03:08:57.390Z,95658.00
2023-05-14T03:09:56.412Z,95654.00
2023-05-14T03:10:56.411Z,95658.00
2023-05-14T03:11:56.378Z,95656.00
2023-05-14T03:12:56.384Z,95658.00
2023-05-14T03:13:57.393Z,95654.00
2023-05-14T03:14:56.402Z,95654.00
2023-05-14T03:15:57.445Z,95652.00
2023-05-14T03:16:57.422Z,95652.00
2023-05-14T03:17:57.416Z,95650.00
2023-05-14T03:18:56.414Z,95650.00
2023-05-14T03:19:56.383Z,95650.00
2023-05-14T03:20:57.385Z,95650.00
2023-05-14T03:21:57.419Z,95650.00
2023-05-14T03:22:56.396Z,95652.00
2023-05-14T03:23:56.364Z,95652.00
2023-05-14T03:24:57.372Z,95654.00
2023-05-14T03:25:57.414Z,95654.00
2023-05-14T03:26:56.367Z,95656.00
2023-05-14T03:27:57.383Z,95656.00
2023-05-14T03:28:56.370Z,95656.00
2023-05-14T03:29:57.375Z,95658.00
2023-05-14T03:30:57.451Z,95656.00
2023-05-14T03:31:57.385Z,95658.00
2023-05-14T03:32:57.423Z,95656.00
2023-05-14T03:33:57.368Z,95656.00
2023-05-14T03:34:57.360Z,95658.00
2023-05-14T03:35:57.365Z,95656.00
2023-05-14T03:36:56.357Z,95658.00
2023-05-14T03:37:56.371Z,95656.00
2023-05-14T03:38:56.360Z,95656.00
2023-05-14T03:39:57.362Z,95658.00
2023-05-14T03:40:57.395Z,95658.00
2023-05-14T03:41:57.362Z,95658.00
2023-05-14T03:42:57.355Z,95656.00
2023-05-14T03:43:57.348Z,95660.00
2023-05-14T03:44:56.364Z,95658.00
2023-05-14T03:45:56.375Z,95660.00
2023-05-14T03:46:57.357Z,95658.00
2023-05-14T03:47:57.415Z,95662.00
2023-05-14T03:48:56.379Z,95666.00
2023-05-14T03:49:57.356Z,95666.00
2023-05-14T03:50:56.356Z,95668.00
2023-05-14T03:51:57.347Z,95666.00
2023-05-14T03:52:56.340Z,95668.00
2023-05-14T03:53:56.379Z,95668.00
2023-05-14T03:54:57.363Z,95670.00
2023-05-14T03:55:56.348Z,95668.00
2023-05-14T03:56:57.386Z,95670.00
2023-05-14T03:57:56.365Z,95668.00
2023-05-14T03:58:57.360Z,95670.00
2023-05-14T03:59:56.389Z,95670.00
2023-05-14T04:00:57.370Z,95672.00
2023-05-14T04:01:56.374Z,95672.00
2023-05-14T04:02:57.403Z,95674.00
2023-05-14T04:03:56.436Z,95674.00
2023-05-14T04:04:57.395Z,95676.00
2023-05-14T04:05:56.374Z,95676.00
2023-05-14T04:06:57.380Z,95678.00
2023-05-14T04:07:56.375Z,95688.00
2023-05-14T04:08:57.371Z,95678.00
2023-05-14T04:09:57.400Z,95678.00
2023-05-14T04:10:57.374Z,95688.00
2023-05-14T04:11:57.390Z,95690.00
2023-05-14T04:12:57.389Z,95688.00
2023-05-14T04:13:57.374Z,95688.00
2023-05-14T04:14:57.369Z,95688.00
2023-05-14T04:15:56.414Z,95688.00
2023-05-14T04:16:58.238Z,95690.00
2023-05-14T04:17:56.398Z,95690.00
2023-05-14T04:18:56.397Z,95690.00
2023-05-14T04:19:57.359Z,95688.00
2023-05-14T04:20:56.347Z,95690.00
2023-05-14T04:21:57.341Z,95688.00
2023-05-14T04:22:57.337Z,95688.00
2023-05-14T04:23:56.330Z,95690.00
2023-05-14T04:24:57.327Z,95690.00
2023-05-14T04:25:57.332Z,95690.00
2023-05-14T04:26:57.303Z,95688.00
2023-05-14T04:27:57.305Z,95690.00
2023-05-14T04:28:56.296Z,95688.00
2023-05-14T04:29:56.313Z,95690.00
2023-05-14T04:30:57.299Z,95688.00
2023-05-14T04:31:57.302Z,95688.00
2023-05-14T04:32:56.340Z,95686.00
2023-05-14T04:33:56.267Z,95674.00
2023-05-14T04:34:57.258Z,95674.00
2023-05-14T04:35:57.260Z,95670.00
2023-05-14T04:36:57.246Z,95672.00
2023-05-14T04:37:57.256Z,95670.00
2023-05-14T04:38:56.227Z,95670.00
2023-05-14T04:39:57.234Z,95668.00
2023-05-14T04:40:56.213Z,95670.00
2023-05-14T04:41:56.232Z,95670.00
2023-05-14T04:42:57.190Z,95672.00
2023-05-14T04:43:56.204Z,95670.00
2023-05-14T04:44:57.187Z,95670.00
2023-05-14T04:45:57.211Z,95674.00
2023-05-14T04:46:56.169Z,95672.00
2023-05-14T04:47:57.196Z,95672.00
2023-05-14T04:48:56.160Z,95672.00
2023-05-14T04:49:57.151Z,95670.00
2023-05-14T04:50:56.145Z,95670.00
2023-05-14T04:51:57.143Z,95668.00
2023-05-14T04:52:57.121Z,95668.00
2023-05-14T04:53:56.121Z,95666.00
2023-05-14T04:54:57.111Z,95666.00
2023-05-14T04:55:57.114Z,95666.00
2023-05-14T04:56:57.102Z,95666.00
2023-05-14T04:57:57.130Z,95664.00
2023-05-14T04:58:57.080Z,95664.00
2023-05-14T04:59:57.068Z,95666.00
2023-05-14T05:00:57.110Z,95662.00
2023-05-14T05:01:56.071Z,95666.00
2023-05-14T05:02:56.125Z,95664.00
2023-05-14T05:03:57.142Z,95666.00
2023-05-14T05:04:57.048Z,95664.00
2023-05-14T05:05:57.040Z,95666.00
2023-05-14T05:06:57.033Z,95666.00
2023-05-14T05:07:56.019Z,95664.00
2023-05-14T05:08:56.009Z,95664.00
2023-05-14T05:09:56.023Z,95668.00
2023-05-14T05:10:56.021Z,95666.00
2023-05-14T05:11:57.005Z,95670.00
2023-05-14T05:12:56.002Z,95672.00
2023-05-14T05:13:57.011Z,95670.00
2023-05-14T05:14:56.979Z,95674.00
2023-05-14T05:15:57.044Z,95672.00
2023-05-14T05:16:55.968Z,95672.00
2023-05-14T05:17:57.002Z,95674.00
2023-05-14T05:18:57.047Z,95674.00
2023-05-14T05:19:56.945Z,95674.00
2023-05-14T05:20:56.952Z,95676.00
2023-05-14T05:21:56.950Z,95674.00
2023-05-14T05:22:56.934Z,95676.00
2023-05-14T05:23:55.916Z,95674.00
2023-05-14T05:24:55.950Z,95676.00
2023-05-14T05:25:55.921Z,95678.00
2023-05-14T05:26:56.914Z,95672.00
2023-05-14T05:27:56.916Z,95672.00
2023-05-14T05:28:55.913Z,95672.00
2023-05-14T05:29:55.899Z,95670.00
2023-05-14T05:30:55.952Z,95672.00
2023-05-14T05:31:56.915Z,95674.00
2023-05-14T05:32:55.913Z,95674.00
2023-05-14T05:33:55.863Z,95676.00
2023-05-14T05:34:55.857Z,95686.00
2023-05-14T05:35:55.837Z,95688.00
2023-05-14T05:36:56.832Z,95690.00
2023-05-14T05:37:58.545Z,95690.00
2023-05-14T05:38:55.820Z,95690.00
2023-05-14T05:39:55.817Z,95690.00
2023-05-14T05:40:55.807Z,95686.00
2023-05-14T05:41:56.790Z,95686.00
2023-05-14T05:42:55.794Z,95686.00
2023-05-14T05:43:55.783Z,95676.00
2023-05-14T05:44:55.766Z,95674.00
2023-05-14T05:45:55.781Z,95670.00
2023-05-14T05:46:56.900Z,95670.00
2023-05-14T05:47:55.835Z,95666.00
2023-05-14T05:48:55.751Z,95662.00
2023-05-14T05:49:55.734Z,95662.00
2023-05-14T05:50:56.724Z,95660.00
2023-05-14T05:51:55.719Z,95660.00
2023-05-14T05:52:55.718Z,95660.00
2023-05-14T05:53:56.708Z,95662.00
2023-05-14T05:54:55.696Z,95660.00
2023-05-14T05:55:55.700Z,95656.00
2023-05-14T05:56:55.693Z,95654.00
2023-05-14T05:57:55.704Z,95652.00
2023-05-14T05:58:56.702Z,95648.00
2023-05-14T05:59:56.673Z,95646.00
2023-05-14T06:00:56.663Z,95642.00
2023-05-14T06:01:56.717Z,95640.00
2023-05-14T06:02:55.694Z,95639.00
2023-05-14T06:03:56.671Z,95635.00
2023-05-14T06:04:55.704Z,95635.00
2023-05-14T06:05:56.630Z,95635.00
2023-05-14T06:06:55.657Z,95637.00
2023-05-14T06:07:55.620Z,95635.00
2023-05-14T06:08:56.616Z,95633.00
2023-05-14T06:09:56.640Z,95633.00
2023-05-14T06:10:56.630Z,95633.00
2023-05-14T06:11:56.612Z,95633.00
2023-05-14T06:12:56.607Z,95635.00
2023-05-14T06:13:56.585Z,95635.00
2023-05-14T06:14:55.599Z,95635.00
2023-05-14T06:15:56.567Z,95637.00
2023-05-14T06:16:55.731Z,95635.00
2023-05-14T06:17:55.627Z,95633.00
2023-05-14T06:18:56.612Z,95631.00
2023-05-14T06:19:55.557Z,95631.00
2023-05-14T06:20:56.547Z,95631.00
2023-05-14T06:21:55.558Z,95629.00
2023-05-14T06:22:55.529Z,95629.00
2023-05-14T06:23:55.532Z,95629.00
2023-05-14T06:24:56.520Z,95629.00
2023-05-14T06:25:56.542Z,95625.00
2023-05-14T06:26:56.532Z,95627.00
2023-05-14T06:27:56.494Z,95627.00
2023-05-14T06:28:55.480Z,95627.00
2023-05-14T06:29:56.485Z,95629.00
2023-05-14T06:30:56.479Z,95627.00
2023-05-14T06:31:56.526Z,95627.00
2023-05-14T06:32:55.545Z,95627.00
2023-05-14T06:33:56.497Z,95627.00
2023-05-14T06:34:56.526Z,95627.00
2023-05-14T06:35:56.448Z,95633.00
2023-05-14T06:36:56.473Z,95633.00
2023-05-14T06:37:56.434Z,95631.00
2023-05-14T06:38:56.436Z,95629.00
2023-05-14T06:39:57.773Z,95629.00
2023-05-14T06:40:56.543Z,95631.00
2023-05-14T06:41:56.553Z,95631.00
2023-05-14T06:42:56.544Z,95631.00
2023-05-14T06:43:56.544Z,95631.00
2023-05-14T06:44:55.546Z,95629.00
2023-05-14T06:45:56.555Z,95633.00
2023-05-14T06:46:55.569Z,95631.00
2023-05-14T06:47:56.613Z,95629.00
2023-05-14T06:48:57.315Z,95631.00
2023-05-14T06:49:55.562Z,95629.00
2023-05-14T06:50:55.540Z,95627.00
2023-05-14T06:51:56.521Z,95627.00
2023-05-14T06:52:55.535Z,95625.00
2023-05-14T06:53:56.504Z,95627.00
2023-05-14T06:54:55.512Z,95623.00
2023-05-14T06:55:55.514Z,95623.00
2023-05-14T06:56:56.499Z,95625.00
2023-05-14T06:57:56.486Z,95625.00
2023-05-14T06:58:55.481Z,95623.00
2023-05-14T06:59:55.476Z,95621.00
2023-05-14T07:00:55.461Z,95627.00
2023-05-14T07:01:56.539Z,95625.00
2023-05-14T07:02:55.482Z,95625.00
2023-05-14T07:03:55.476Z,95623.00
2023-05-14T07:04:56.461Z,95627.00
2023-05-14T07:05:55.494Z,95623.00
2023-05-14T07:06:55.434Z,95623.00
2023-05-14T07:07:55.432Z,95623.00
2023-05-14T07:08:56.424Z,95621.00
2023-05-14T07:09:55.417Z,95619.00
2023-05-14T07:10:56.403Z,95619.00
2023-05-14T07:11:56.413Z,95617.00
2023-05-14T07:12:55.405Z,95619.00
2023-05-14T07:13:55.418Z,95615.00
2023-05-14T07:14:55.381Z,95613.00
2023-05-14T07:15:56.373Z,95613.00
2023-05-14T07:16:55.413Z,95613.00
2023-05-14T07:17:55.475Z,95613.00
2023-05-14T07:18:55.447Z,95611.00
2023-05-14T07:19:56.361Z,95611.00
2023-05-14T07:20:56.346Z,95611.00
2023-05-14T07:21:56.368Z,95611.00
2023-05-14T07:22:55.332Z,95611.00
2023-05-14T07:23:56.313Z,95611.00
2023-05-14T07:24:56.315Z,95609.00
2023-05-14T07:25:56.304Z,95607.00
2023-05-14T07:26:55.303Z,95607.00
2023-05-14T07:27:56.293Z,95605.00
2023-05-14T07:28:56.290Z,95605.00
2023-05-14T07:29:56.283Z,95601.00
2023-05-14T07:30:56.292Z,95601.00
2023-05-14T07:31:55.279Z,95597.00
2023-05-14T07:32:56.295Z,95597.00
2023-05-14T07:33:56.272Z,95593.00
2023-05-14T07:34:56.244Z,95593.00
2023-05-14T07:35:55.227Z,95593.00
2023-05-14T07:36:55.246Z,95592.00
2023-05-14T07:37:55.244Z,95590.00
2023-05-14T07:38:55.204Z,95593.00
2023-05-14T07:39:55.200Z,95590.00
2023-05-14T07:40:56.195Z,95590.00
2023-05-14T07:41:56.269Z,95592.00
2023-05-14T07:42:55.307Z,95590.00
2023-05-14T07:43:55.370Z,95592.00
2023-05-14T07:44:55.426Z,95592.00
2023-05-14T07:45:55.499Z,95592.00
2023-05-14T07:46:55.581Z,95588.00
2023-05-14T07:47:55.775Z,95590.00
2023-05-14T07:48:56.649Z,95584.00
2023-05-14T07:49:56.731Z,95586.00
2023-05-14T07:50:55.782Z,95586.00
2023-05-14T07:51:55.838Z,95582.00
2023-05-14T07:52:56.881Z,95584.00
2023-05-14T07:53:55.952Z,95582.00
2023-05-14T07:54:55.974Z,95580.00
2023-05-14T07:55:57.087Z,95576.00
2023-05-14T07:56:57.081Z,95576.00
2023-05-14T07:57:57.167Z,95574.00
2023-05-14T07:58:56.208Z,95572.00
2023-05-14T07:59:57.302Z,95572.00
2023-05-14T08:00:57.353Z,95570.00
2023-05-14T08:01:57.404Z,95568.00
2023-05-14T08:02:56.573Z,95568.00
2023-05-14T08:03:56.629Z,95572.00
2023-05-14T08:04:56.610Z,95572.00
2023-05-14T08:05:57.659Z,95570.00
2023-05-14T08:06:57.729Z,95570.00
2023-05-14T08:07:56.801Z,95568.00
2023-05-14T08:08:57.865Z,95568.00
2023-05-14T08:09:57.935Z,95566.00
2023-05-14T08:10:58.020Z,95568.00
2023-05-14T08:11:58.043Z,95566.00
2023-05-14T08:12:57.110Z,95564.00
2023-05-14T08:13:57.163Z,95562.00
2023-05-14T08:14:57.226Z,95562.00
2023-05-14T08:15:58.272Z,95560.00
2023-05-14T08:16:57.400Z,95556.00
2023-05-14T08:17:58.464Z,95556.00
2023-05-14T08:18:58.501Z,95554.00
2023-05-14T08:19:57.524Z,95556.00
2023-05-14T08:20:58.578Z,95556.00
2023-05-14T08:21:57.639Z,95554.00
2023-05-14T08:22:57.721Z,95556.00
2023-05-14T08:23:58.742Z,95556.00
2023-05-14T08:24:57.786Z,95554.00
2023-05-14T08:25:58.882Z,95552.00
2023-05-14T08:26:58.906Z,95548.00
2023-05-14T08:27:57.963Z,95548.00
2023-05-14T08:28:58.002Z,95550.00
2023-05-14T08:29:58.050Z,95548.00
2023-05-14T08:30:59.144Z,95548.00
2023-05-14T08:31:59.092Z,95545.00
2023-05-14T08:32:59.236Z,95543.00
2023-05-14T08:33:58.270Z,95545.00
2023-05-14T08:34:59.306Z,95541.00
2023-05-14T08:35:58.372Z,95541.00
2023-05-14T08:36:59.427Z,95541.00
2023-05-14T08:37:59.467Z,95537.00
2023-05-14T08:38:59.525Z,95541.00
2023-05-14T08:39:59.552Z,95535.00
2023-05-14T08:40:59.638Z,95537.00
2023-05-14T08:41:59.752Z,95535.00
2023-05-14T08:42:59.702Z,95531.00
2023-05-14T08:43:59.759Z,95533.00
2023-05-14T08:44:58.813Z,95531.00
2023-05-14T08:45:58.839Z,95529.00
2023-05-14T08:46:59.909Z,95529.00
2023-05-14T08:48:00.028Z,95527.00
2023-05-14T08:49:00.035Z,95525.00
2023-05-14T08:49:59.048Z,95525.00
2023-05-14T08:51:00.093Z,95523.00
2023-05-14T08:52:00.139Z,95519.00
2023-05-14T08:52:59.228Z,95523.00
2023-05-14T08:54:00.220Z,95517.00
2023-05-14T08:54:59.266Z,95521.00
2023-05-14T08:56:00.323Z,95521.00
2023-05-14T08:57:00.367Z,95519.00
2023-05-14T08:58:00.430Z,95519.00
2023-05-14T08:59:00.445Z,95519.00
2023-05-14T09:00:00.521Z,95519.00
2023-05-14T09:01:00.524Z,95519.00
2023-05-14T09:02:00.615Z,95517.00
2023-05-14T09:03:00.706Z,95517.00
2023-05-14T09:04:00.679Z,95517.00
2023-05-14T09:05:00.707Z,95517.00
2023-05-14T09:06:00.745Z,95519.00
2023-05-14T09:06:59.769Z,95519.00
2023-05-14T09:07:59.813Z,95519.00
2023-05-14T09:08:59.854Z,95517.00
2023-05-14T09:09:59.865Z,95519.00
2023-05-14T09:11:00.910Z,95517.00
2023-05-14T09:12:00.954Z,95519.00
2023-05-14T09:12:59.999Z,95519.00
2023-05-14T09:14:01.057Z,95519.00
2023-05-14T09:15:00.063Z,95515.00
2023-05-14T09:16:01.105Z,95517.00
2023-05-14T09:17:00.163Z,95515.00
2023-05-14T09:18:01.265Z,95515.00
2023-05-14T09:19:01.277Z,95519.00
2023-05-14T09:20:01.277Z,95519.00
2023-05-14T09:21:01.257Z,95519.00
2023-05-14T09:22:01.341Z,95519.00
2023-05-14T09:23:01.337Z,95521.00
2023-05-14T09:24:01.331Z,95521.00
2023-05-14T09:25:01.387Z,95519.00
2023-05-14T09:26:01.394Z,95521.00
2023-05-14T09:27:01.443Z,95519.00
2023-05-14T09:28:01.489Z,95523.00
2023-05-14T09:29:00.482Z,95523.00
2023-05-14T09:30:00.557Z,95519.00
2023-05-14T09:31:01.565Z,95519.00
2023-05-14T09:32:00.638Z,95515.00
2023-05-14T09:33:00.671Z,95513.00
2023-05-14T09:34:01.665Z,95515.00
2023-05-14T09:35:01.685Z,95511.00
2023-05-14T09:36:01.710Z,95513.00
2023-05-14T09:37:00.740Z,95513.00
2023-05-14T09:38:01.758Z,95513.00
2023-05-14T09:39:01.779Z,95515.00
2023-05-14T09:40:00.809Z,95513.00
2023-05-14T09:41:01.816Z,95513.00
2023-05-14T09:42:01.847Z,95513.00
2023-05-14T09:43:01.881Z,95511.00
2023-05-14T09:44:00.890Z,95511.00
2023-05-14T09:45:01.936Z,95511.00
2023-05-14T09:46:01.938Z,95511.00
2023-05-14T09:47:00.970Z,95509.00
2023-05-14T09:48:01.160Z,95509.00
2023-05-14T09:49:00.999Z,95507.00
2023-05-14T09:50:02.017Z,95507.00
2023-05-14T09:51:03.340Z,95509.00
2023-05-14T09:52:01.046Z,95509.00
2023-05-14T09:53:01.024Z,95507.00
2023-05-14T09:54:01.045Z,95507.00
2023-05-14T09:55:01.013Z,95505.00
2023-05-14T09:56:01.021Z,95505.00
2023-05-14T09:57:02.002Z,95503.00
2023-05-14T09:58:00.990Z,95501.00
2023-05-14T09:59:00.995Z,95499.00
2023-05-14T10:00:00.989Z,95498.00
2023-05-14T10:01:01.036Z,95496.00
2023-05-14T10:02:00.978Z,95492.00
2023-05-14T10:03:01.972Z,95490.00
2023-05-14T10:04:00.994Z,95490.00
2023-05-14T10:05:01.967Z,95488.00
2023-05-14T10:06:01.968Z,95488.00
2023-05-14T10:07:00.945Z,95488.00
2023-05-14T10:08:01.934Z,95486.00
2023-05-14T10:09:00.931Z,95484.00
2023-05-14T10:10:01.979Z,95484.00
2023-05-14T10:11:01.913Z,95486.00
2023-05-14T10:12:00.906Z,95484.00
2023-05-14T10:13:01.891Z,95484.00
2023-05-14T10:14:00.888Z,95482.00
2023-05-14T10:15:00.884Z,95482.00
2023-05-14T10:16:01.888Z,95478.00
2023-05-14T10:17:00.970Z,95478.00
2023-05-14T10:18:01.939Z,95478.00
2023-05-14T10:19:00.888Z,95472.00
2023-05-14T10:20:01.864Z,95472.00
2023-05-14T10:21:01.853Z,95470.00
2023-05-14T10:22:01.870Z,95468.00
2023-05-14T10:23:00.851Z,95466.00
2023-05-14T10:24:00.840Z,95464.00
2023-05-14T10:25:01.819Z,95464.00
2023-05-14T10:26:01.811Z,95462.00
2023-05-14T10:27:01.800Z,95464.00
2023-05-14T10:28:01.805Z,95464.00
2023-05-14T10:29:01.805Z,95462.00
2023-05-14T10:30:01.815Z,95458.00
2023-05-14T10:31:00.923Z,95458.00
2023-05-14T10:32:00.796Z,95456.00
2023-05-14T10:33:01.835Z,95456.00
2023-05-14T10:34:00.775Z,95456.00
2023-05-14T10:35:00.755Z,95454.00
2023-05-14T10:36:00.762Z,95452.00
2023-05-14T10:37:01.755Z,95452.00
2023-05-14T10:38:01.734Z,95454.00
2023-05-14T10:39:01.726Z,95452.00
2023-05-14T10:40:01.742Z,95452.00
2023-05-14T10:41:01.713Z,95451.00
2023-05-14T10:42:00.709Z,95451.00
2023-05-14T10:43:01.717Z,95451.00
2023-05-14T10:44:00.710Z,95451.00
2023-05-14T10:45:01.746Z,95451.00
2023-05-14T10:46:01.713Z,95447.00
2023-05-14T10:47:01.764Z,95449.00
2023-05-14T10:48:00.711Z,95447.00
2023-05-14T10:49:01.704Z,95445.00
2023-05-14T10:50:00.650Z,95443.00
2023-05-14T10:51:00.698Z,95439.00
2023-05-14T10:52:00.655Z,95441.00
2023-05-14T10:53:01.656Z,95439.00
2023-05-14T10:54:00.644Z,95441.00
2023-05-14T10:55:03.416Z,95437.00
2023-05-14T10:56:01.614Z,95437.00
2023-05-14T10:57:00.606Z,95433.00
2023-05-14T10:58:00.611Z,95431.00
2023-05-14T10:59:00.604Z,95431.00
2023-05-14T11:00:00.616Z,95429.00
2023-05-14T11:01:01.605Z,95429.00
2023-05-14T11:02:00.598Z,95421.00
2023-05-14T11:03:00.638Z,95429.00
2023-05-14T11:04:01.597Z,95421.00
2023-05-14T11:05:01.587Z,95417.00
2023-05-14T11:06:00.542Z,95421.00
2023-05-14T11:07:01.557Z,95419.00
2023-05-14T11:08:01.558Z,95419.00
2023-05-14T11:09:01.549Z,95419.00
2023-05-14T11:10:00.523Z,95417.00
2023-05-14T11:11:01.517Z,95417.00
2023-05-14T11:12:00.517Z,95415.00
2023-05-14T11:13:01.505Z,95413.00
2023-05-14T11:14:00.506Z,95411.00
2023-05-14T11:15:01.501Z,95411.00
2023-05-14T11:16:08.761Z,95411.00
2023-05-14T11:17:01.521Z,95409.00
2023-05-14T11:18:00.504Z,95404.00
2023-05-14T11:19:01.488Z,95404.00
2023-05-14T11:20:01.462Z,95398.00
2023-05-14T11:21:00.506Z,95396.00
2023-05-14T11:22:00.434Z,95392.00
2023-05-14T11:23:00.432Z,95392.00
2023-05-14T11:24:00.430Z,95388.00
2023-05-14T11:25:01.425Z,95386.00
2023-05-14T11:26:01.465Z,95388.00
2023-05-14T11:27:01.405Z,95384.00
2023-05-14T11:28:00.388Z,95386.00
2023-05-14T11:29:00.386Z,95384.00
2023-05-14T11:30:01.380Z,95384.00
2023-05-14T11:31:01.377Z,95382.00
2023-05-14T11:32:01.485Z,95380.00
2023-05-14T11:33:02.213Z,95380.00
2023-05-14T11:34:00.363Z,95380.00
2023-05-14T11:35:00.361Z,95376.00
2023-05-14T11:36:01.337Z,95372.00
2023-05-14T11:37:01.371Z,95370.00
2023-05-14T11:38:01.332Z,95370.00
2023-05-14T11:39:01.341Z,95370.00
2023-05-14T11:40:00.320Z,95368.00
2023-05-14T11:41:01.322Z,95366.00
2023-05-14T11:42:01.330Z,95368.00
2023-05-14T11:43:01.293Z,95364.00
2023-05-14T11:44:01.291Z,95366.00
2023-05-14T11:45:01.293Z,95364.00